Terminal Aerodrome Forecast
Issued by NWS

Home | Current Version | Previous Version | Text Only | Print | Product List | Glossary On
Versions: 1 2 3 4 5 6 7 8 9 10 11 12 13 14 15 16
984
FTUS46 KPDT 050232 AAA
TAFRDM
TAF AMD
KRDM 050232Z 0503/0524 VRB06KT P6SM SCT070 BKN100
      TEMPO 0504/0508 4SM -TSRA BKN050CB BKN100
     FM050800 35008KT P6SM SCT050 BKN100
     FM052000 32008KT P6SM BKN050 BKN100
      TEMPO 0520/0524 -TSRA BKN050CB OVC100=

USA.gov is the U.S. government's official web portal to all federal, state and local government web resources and services.